createdAt,value
2023-05-19T00:00:33.124Z,9.80
2023-05-19T00:03:21.811Z,9.80
2023-05-19T00:05:53.886Z,9.80
2023-05-19T00:08:24.710Z,9.80
2023-05-19T00:10:52.893Z,9.80
2023-05-19T00:13:22.042Z,9.80
2023-05-19T00:15:51.156Z,9.84
2023-05-19T00:18:18.896Z,9.90
2023-05-19T00:20:46.639Z,9.90
2023-05-19T00:23:14.338Z,9.84
2023-05-19T00:25:42.359Z,9.84
2023-05-19T00:28:10.039Z,9.80
2023-05-19T00:30:37.805Z,9.80
2023-05-19T00:33:05.663Z,9.80
2023-05-19T00:35:33.478Z,9.80
2023-05-19T00:38:01.165Z,9.80
2023-05-19T00:40:32.203Z,9.80
2023-05-19T00:43:00.535Z,9.80
2023-05-19T00:45:29.064Z,9.80
2023-05-19T00:47:57.346Z,9.80
2023-05-19T00:50:25.185Z,9.80
2023-05-19T00:52:53.342Z,9.80
2023-05-19T00:55:26.646Z,9.80
2023-05-19T00:57:56.967Z,9.80
2023-05-19T01:00:24.793Z,9.80
2023-05-19T01:02:54.276Z,9.80
2023-05-19T01:05:22.570Z,9.80
2023-05-19T01:07:55.606Z,9.88
2023-05-19T01:10:23.253Z,9.90
2023-05-19T01:12:50.967Z,9.90
2023-05-19T01:15:18.869Z,9.90
2023-05-19T01:18:16.801Z,9.90
2023-05-19T01:21:03.814Z,9.90
2023-05-19T01:24:09.119Z,9.90
2023-05-19T01:26:49.138Z,9.84
2023-05-19T01:30:17.399Z,9.90
2023-05-19T01:32:48.090Z,9.90
2023-05-19T01:35:17.062Z,9.80
2023-05-19T01:37:46.949Z,9.80
2023-05-19T01:40:15.267Z,9.80
2023-05-19T01:42:43.122Z,9.80
2023-05-19T01:45:12.318Z,9.80
2023-05-19T01:47:50.598Z,9.80
2023-05-19T01:50:18.410Z,9.80
2023-05-19T01:52:46.130Z,9.80
2023-05-19T01:55:14.035Z,9.80
2023-05-19T01:58:31.312Z,9.80
2023-05-19T02:01:38.009Z,9.70
2023-05-19T02:04:40.302Z,9.70
2023-05-19T02:07:26.625Z,9.70
2023-05-19T02:10:14.752Z,9.68
2023-05-19T02:12:46.172Z,9.60
2023-05-19T02:15:23.036Z,9.60
2023-05-19T02:17:54.498Z,9.60
2023-05-19T02:20:22.396Z,9.60
2023-05-19T02:22:50.522Z,9.60
2023-05-19T02:25:18.315Z,9.60
2023-05-19T02:27:46.503Z,9.60
2023-05-19T02:30:14.287Z,9.60
2023-05-19T02:32:42.049Z,9.60
2023-05-19T02:35:10.099Z,9.56
2023-05-19T02:37:37.797Z,9.60
2023-05-19T02:40:06.712Z,9.60
2023-05-19T02:42:34.377Z,9.60
2023-05-19T02:45:02.060Z,9.60
2023-05-19T02:47:29.902Z,9.60
2023-05-19T02:49:57.598Z,9.60
2023-05-19T02:52:25.306Z,9.60
2023-05-19T02:54:52.987Z,9.60
2023-05-19T02:57:20.785Z,9.60
2023-05-19T02:59:48.964Z,9.60
2023-05-19T03:02:16.723Z,9.60
2023-05-19T03:04:45.697Z,9.60
2023-05-19T03:07:13.678Z,9.60
2023-05-19T03:09:41.612Z,9.60
2023-05-19T03:12:09.470Z,9.60
2023-05-19T03:14:38.748Z,9.60
2023-05-19T03:17:10.261Z,9.60
2023-05-19T03:19:38.257Z,9.60
2023-05-19T03:22:06.441Z,9.60
2023-05-19T03:24:34.576Z,9.68
2023-05-19T03:27:05.329Z,9.70
2023-05-19T03:29:33.360Z,9.70
2023-05-19T03:32:01.784Z,9.70
2023-05-19T03:34:29.599Z,9.70
2023-05-19T03:36:57.205Z,9.70
2023-05-19T03:39:24.960Z,9.70
2023-05-19T03:41:52.872Z,9.70
2023-05-19T03:44:21.040Z,9.70
2023-05-19T03:46:48.771Z,9.78
2023-05-19T03:49:16.471Z,9.76
2023-05-19T03:51:44.337Z,9.80
2023-05-19T03:54:12.068Z,9.80
2023-05-19T03:56:43.331Z,9.80
2023-05-19T03:59:12.327Z,9.80
2023-05-19T04:01:40.007Z,9.80
2023-05-19T04:04:07.885Z,9.80
2023-05-19T04:06:36.283Z,9.80
2023-05-19T04:09:13.797Z,9.80
2023-05-19T04:11:42.954Z,9.80
2023-05-19T04:14:10.788Z,9.80
2023-05-19T04:16:38.657Z,9.80
2023-05-19T04:19:06.391Z,9.80
2023-05-19T04:21:34.225Z,9.80
2023-05-19T04:24:02.675Z,9.80
2023-05-19T04:26:31.236Z,9.86
2023-05-19T04:28:59.065Z,9.86
2023-05-19T04:31:28.716Z,9.82
2023-05-19T04:33:56.460Z,9.90
2023-05-19T04:36:24.216Z,9.88
2023-05-19T04:38:54.950Z,9.86
2023-05-19T04:41:23.077Z,9.80
2023-05-19T04:43:50.795Z,9.80
2023-05-19T04:46:18.646Z,9.80
2023-05-19T04:48:46.442Z,9.88
2023-05-19T04:51:14.430Z,9.82
2023-05-19T04:53:42.751Z,9.80
2023-05-19T04:56:11.455Z,9.80
2023-05-19T04:58:40.600Z,9.80
2023-05-19T05:01:09.645Z,9.80
2023-05-19T05:03:37.762Z,9.80
2023-05-19T05:06:06.661Z,9.80
2023-05-19T05:08:35.499Z,9.80
2023-05-19T05:11:04.230Z,9.80
2023-05-19T05:13:32.431Z,9.80
2023-05-19T05:16:00.664Z,9.90
2023-05-19T05:18:28.728Z,9.90
2023-05-19T05:20:56.782Z,9.90
2023-05-19T05:23:25.587Z,9.90
2023-05-19T05:25:53.873Z,9.90
2023-05-19T05:28:21.734Z,9.90
2023-05-19T05:30:50.510Z,9.90
2023-05-19T05:33:19.616Z,9.90
2023-05-19T05:35:47.329Z,10.00
2023-05-19T05:38:15.022Z,10.00
2023-05-19T05:40:42.670Z,10.00
2023-05-19T05:43:10.480Z,10.10
2023-05-19T05:45:38.195Z,10.10
2023-05-19T05:48:07.108Z,10.10
2023-05-19T05:50:35.331Z,10.10
2023-05-19T05:53:05.313Z,10.20
2023-05-19T05:55:33.752Z,10.20
2023-05-19T05:58:02.477Z,10.22
2023-05-19T06:00:30.476Z,10.30
2023-05-19T06:02:59.272Z,10.30
2023-05-19T06:05:27.289Z,10.30
2023-05-19T06:07:55.034Z,10.32
2023-05-19T06:10:23.459Z,10.40
2023-05-19T06:12:51.369Z,10.40
2023-05-19T06:15:19.078Z,10.40
2023-05-19T06:17:46.842Z,10.40
2023-05-19T06:20:15.202Z,10.40
2023-05-19T06:22:43.115Z,10.48
2023-05-19T06:25:10.987Z,10.50
2023-05-19T06:27:38.665Z,10.50
2023-05-19T06:30:08.804Z,10.56
2023-05-19T06:32:36.583Z,10.60
2023-05-19T06:35:05.091Z,10.60
2023-05-19T06:37:32.842Z,10.62
2023-05-19T06:40:00.577Z,10.70
2023-05-19T06:42:28.323Z,10.70
2023-05-19T06:44:56.036Z,10.70
2023-05-19T06:47:23.863Z,10.80
2023-05-19T06:49:55.457Z,10.80
2023-05-19T06:52:23.830Z,10.80
2023-05-19T06:54:51.534Z,10.72
2023-05-19T06:57:19.263Z,10.70
2023-05-19T06:59:46.961Z,10.70
2023-05-19T07:02:14.873Z,10.80
2023-05-19T07:04:43.057Z,10.80
2023-05-19T07:07:10.747Z,10.80
2023-05-19T07:09:38.512Z,10.80
2023-05-19T07:12:06.478Z,10.90
2023-05-19T07:14:36.541Z,10.90
2023-05-19T07:17:05.086Z,10.90
2023-05-19T07:19:32.884Z,10.90
2023-05-19T07:22:00.815Z,10.94
2023-05-19T07:24:28.520Z,10.94
2023-05-19T07:26:56.400Z,10.94
2023-05-19T07:29:24.198Z,11.00
2023-05-19T07:31:54.319Z,11.00
2023-05-19T07:34:22.292Z,11.00
2023-05-19T07:36:51.604Z,11.00
2023-05-19T07:39:19.692Z,11.00
2023-05-19T07:41:52.729Z,11.00
2023-05-19T07:44:20.430Z,11.06
2023-05-19T07:46:48.543Z,11.10
2023-05-19T07:49:16.158Z,11.10
2023-05-19T07:51:44.005Z,11.10
2023-05-19T07:54:11.728Z,11.10
2023-05-19T07:56:40.667Z,11.14
2023-05-19T07:59:08.379Z,11.20
2023-05-19T08:01:36.275Z,11.20
2023-05-19T08:04:04.173Z,11.20
2023-05-19T08:06:32.176Z,11.26
2023-05-19T08:09:00.081Z,11.30
2023-05-19T08:11:28.213Z,11.30
2023-05-19T08:13:56.691Z,11.30
2023-05-19T08:16:24.575Z,11.38
2023-05-19T08:18:57.069Z,11.40
2023-05-19T08:21:28.064Z,11.40
2023-05-19T08:23:57.243Z,11.40
2023-05-19T08:26:24.954Z,11.42
2023-05-19T08:28:52.649Z,11.46
2023-05-19T08:31:20.957Z,11.46
2023-05-19T08:33:48.706Z,11.50
2023-05-19T08:36:16.398Z,11.50
2023-05-19T08:38:44.323Z,11.50
2023-05-19T08:41:12.349Z,11.50
2023-05-19T08:43:40.093Z,11.52
2023-05-19T08:46:08.374Z,11.60
2023-05-19T08:48:42.732Z,11.60
2023-05-19T08:51:41.557Z,11.60
2023-05-19T08:54:17.923Z,11.60
2023-05-19T08:56:46.615Z,11.60
2023-05-19T08:59:15.966Z,11.60
2023-05-19T09:01:48.452Z,11.60
2023-05-19T09:04:17.402Z,11.62
2023-05-19T09:06:45.459Z,11.70
2023-05-19T09:09:13.663Z,11.70
2023-05-19T09:11:45.274Z,11.70
2023-05-19T09:14:12.942Z,11.70
2023-05-19T09:16:41.463Z,11.78
2023-05-19T09:19:15.606Z,11.80
2023-05-19T09:21:45.750Z,11.86
2023-05-19T09:24:13.616Z,11.90
2023-05-19T09:26:42.951Z,11.90
2023-05-19T09:29:16.604Z,11.94
2023-05-19T09:31:52.585Z,11.92
2023-05-19T09:34:22.454Z,12.00
2023-05-19T09:36:51.772Z,12.00
2023-05-19T09:39:24.132Z,12.02
2023-05-19T09:41:54.585Z,12.10
2023-05-19T09:44:30.601Z,12.10
2023-05-19T09:46:58.951Z,12.10
2023-05-19T09:49:30.352Z,12.20
2023-05-19T09:52:03.394Z,12.20
2023-05-19T09:54:33.905Z,12.20
2023-05-19T09:57:07.045Z,12.20
2023-05-19T09:59:38.976Z,12.20
2023-05-19T10:02:17.989Z,12.20
2023-05-19T10:04:48.421Z,12.20
2023-05-19T10:07:18.485Z,12.20
2023-05-19T10:09:46.863Z,12.20
2023-05-19T10:12:15.807Z,12.22
2023-05-19T10:14:44.032Z,12.30
2023-05-19T10:17:14.235Z,12.30
2023-05-19T10:19:45.218Z,12.30
2023-05-19T10:22:13.010Z,12.30
2023-05-19T10:24:40.810Z,12.36
2023-05-19T10:27:14.792Z,12.34
2023-05-19T10:29:49.904Z,12.40
2023-05-19T10:32:24.954Z,12.40
2023-05-19T10:35:27.819Z,12.50
2023-05-19T10:38:29.911Z,12.50
2023-05-19T10:41:25.054Z,12.60
2023-05-19T10:44:24.863Z,12.60
2023-05-19T10:46:54.357Z,12.60
2023-05-19T10:49:24.322Z,12.64
2023-05-19T10:51:56.371Z,12.64
2023-05-19T10:54:47.477Z,12.70
2023-05-19T10:57:26.607Z,12.70
2023-05-19T10:59:57.361Z,12.70
2023-05-19T11:02:44.080Z,12.70
2023-05-19T11:05:18.574Z,12.70
2023-05-19T11:08:07.330Z,12.70
2023-05-19T11:10:35.269Z,12.70
2023-05-19T11:13:06.591Z,12.70
2023-05-19T11:15:37.355Z,12.70
2023-05-19T11:18:05.381Z,12.72
2023-05-19T11:20:35.002Z,12.80
2023-05-19T11:23:08.360Z,12.80
2023-05-19T11:25:54.006Z,12.90
2023-05-19T11:28:28.025Z,12.90
2023-05-19T11:30:59.019Z,12.98
2023-05-19T11:33:27.455Z,13.00
2023-05-19T11:36:00.355Z,13.10
2023-05-19T11:38:30.169Z,13.10
2023-05-19T11:40:58.289Z,13.18
2023-05-19T11:43:26.495Z,13.20
2023-05-19T11:45:55.992Z,13.20
2023-05-19T11:48:25.322Z,13.28
2023-05-19T11:50:53.717Z,13.30
2023-05-19T11:53:21.568Z,13.30
2023-05-19T11:55:49.876Z,13.38
2023-05-19T11:58:17.933Z,13.40
2023-05-19T12:00:48.607Z,13.40
2023-05-19T12:03:26.580Z,13.40
2023-05-19T12:05:54.662Z,13.40
2023-05-19T12:08:23.317Z,13.40
2023-05-19T12:10:52.506Z,13.40
2023-05-19T12:13:22.732Z,13.40
2023-05-19T12:15:52.572Z,13.50
2023-05-19T12:18:21.135Z,13.40
2023-05-19T12:20:49.432Z,13.40
2023-05-19T12:23:17.263Z,13.46
2023-05-19T12:25:45.355Z,13.48
2023-05-19T12:28:16.474Z,13.50
2023-05-19T12:30:52.086Z,13.50
2023-05-19T12:33:22.820Z,13.58
2023-05-19T12:35:51.942Z,13.58
2023-05-19T12:38:20.903Z,13.60
2023-05-19T12:40:50.221Z,13.60
2023-05-19T12:43:23.360Z,13.60
2023-05-19T12:45:52.564Z,13.60
2023-05-19T12:48:23.025Z,13.60
2023-05-19T12:50:55.575Z,13.60
2023-05-19T12:53:28.077Z,13.60
2023-05-19T12:55:56.019Z,13.60
2023-05-19T12:58:24.347Z,13.60
2023-05-19T13:00:59.804Z,13.64
2023-05-19T13:03:28.035Z,13.70
2023-05-19T13:05:55.977Z,13.70
2023-05-19T13:08:24.958Z,13.76
2023-05-19T13:10:53.045Z,13.80
2023-05-19T13:13:22.127Z,13.80
2023-05-19T13:15:50.170Z,13.80
2023-05-19T13:18:18.683Z,13.80
2023-05-19T13:20:49.239Z,13.80
2023-05-19T13:23:17.530Z,13.80
2023-05-19T13:25:47.216Z,13.80
2023-05-19T13:28:15.109Z,13.80
2023-05-19T13:30:44.103Z,13.88
2023-05-19T13:33:12.058Z,13.90
2023-05-19T13:35:40.162Z,13.90
2023-05-19T13:38:10.642Z,13.90
2023-05-19T13:40:40.117Z,13.80
2023-05-19T13:43:08.816Z,13.80
2023-05-19T13:45:37.538Z,13.82
2023-05-19T13:48:07.502Z,13.80
2023-05-19T13:50:35.705Z,13.90
2023-05-19T13:53:03.959Z,13.90
2023-05-19T13:55:33.009Z,13.90
2023-05-19T13:58:00.834Z,13.90
2023-05-19T14:00:28.635Z,13.90
2023-05-19T14:02:56.552Z,13.90
2023-05-19T14:05:24.346Z,13.90
2023-05-19T14:07:52.021Z,13.80
2023-05-19T14:10:20.514Z,13.80
2023-05-19T14:13:12.425Z,13.80
2023-05-19T14:15:37.827Z,13.80
2023-05-19T14:18:07.041Z,13.70
2023-05-19T14:20:47.106Z,13.70
2023-05-19T14:23:17.002Z,13.70
2023-05-19T14:25:44.729Z,13.80
2023-05-19T14:28:12.379Z,13.80
2023-05-19T14:30:40.542Z,13.80
2023-05-19T14:33:09.423Z,13.70
2023-05-19T14:35:37.191Z,13.70
2023-05-19T14:38:04.927Z,13.70
2023-05-19T14:40:32.939Z,13.70
2023-05-19T14:43:00.948Z,13.70
2023-05-19T14:45:29.081Z,13.70
2023-05-19T14:47:56.870Z,13.70
2023-05-19T14:50:24.654Z,13.70
2023-05-19T14:52:52.324Z,13.70
2023-05-19T14:55:20.123Z,13.70
2023-05-19T14:57:47.811Z,13.70
2023-05-19T15:00:17.757Z,13.70
2023-05-19T15:02:46.204Z,13.70
2023-05-19T15:05:14.062Z,13.60
2023-05-19T15:07:41.741Z,13.60
2023-05-19T15:10:10.195Z,13.60
2023-05-19T15:12:38.043Z,13.60
2023-05-19T15:15:07.101Z,13.60
2023-05-19T15:17:35.453Z,13.60
2023-05-19T15:20:03.506Z,13.60
2023-05-19T15:22:31.220Z,13.60
2023-05-19T15:24:59.452Z,13.60
2023-05-19T15:27:27.610Z,13.60
2023-05-19T15:29:55.459Z,13.60
2023-05-19T15:32:23.201Z,13.60
2023-05-19T15:34:51.028Z,13.60
2023-05-19T15:37:18.752Z,13.60
2023-05-19T15:39:46.541Z,13.60
2023-05-19T15:42:14.217Z,13.60
2023-05-19T15:44:42.179Z,13.60
2023-05-19T15:47:09.878Z,13.60
2023-05-19T15:49:37.524Z,13.60
2023-05-19T15:52:05.726Z,13.60
2023-05-19T15:54:33.451Z,13.60
2023-05-19T15:57:01.120Z,13.60
2023-05-19T15:59:28.892Z,13.60
2023-05-19T16:01:56.712Z,13.50
2023-05-19T16:04:24.514Z,13.50
2023-05-19T16:06:52.216Z,13.50
2023-05-19T16:09:19.932Z,13.50
2023-05-19T16:11:47.703Z,13.50
2023-05-19T16:14:15.462Z,13.40
2023-05-19T16:16:44.656Z,13.40
2023-05-19T16:19:12.498Z,13.40
2023-05-19T16:21:40.262Z,13.34
2023-05-19T16:24:08.006Z,13.30
2023-05-19T16:26:35.771Z,13.30
2023-05-19T16:29:03.432Z,13.30
2023-05-19T16:31:31.244Z,13.30
2023-05-19T16:33:59.062Z,13.30
2023-05-19T16:36:27.029Z,13.30
2023-05-19T16:38:54.774Z,13.30
2023-05-19T16:41:22.506Z,13.26
2023-05-19T16:43:50.545Z,13.26
2023-05-19T16:46:18.534Z,13.22
2023-05-19T16:48:46.228Z,13.20
2023-05-19T16:51:13.946Z,13.20
2023-05-19T16:53:41.562Z,13.20
2023-05-19T16:56:09.326Z,13.20
2023-05-19T16:58:37.273Z,13.20
2023-05-19T17:01:05.159Z,13.20
2023-05-19T17:03:33.078Z,13.20
2023-05-19T17:06:01.201Z,13.20
2023-05-19T17:08:28.953Z,13.20
2023-05-19T17:10:56.667Z,13.20
2023-05-19T17:13:24.395Z,13.20
2023-05-19T17:15:55.249Z,13.20
2023-05-19T17:18:22.949Z,13.20
2023-05-19T17:20:50.690Z,13.16
2023-05-19T17:23:18.303Z,13.10
2023-05-19T17:25:46.078Z,13.10
2023-05-19T17:28:13.842Z,13.10
2023-05-19T17:30:41.523Z,13.10
2023-05-19T17:33:09.346Z,13.10
2023-05-19T17:35:37.061Z,13.02
2023-05-19T17:38:04.770Z,13.00
2023-05-19T17:40:34.170Z,13.00
2023-05-19T17:43:02.262Z,13.00
2023-05-19T17:45:30.002Z,13.00
2023-05-19T17:47:57.997Z,13.00
2023-05-19T17:50:26.575Z,13.00
2023-05-19T17:52:56.176Z,13.00
2023-05-19T17:55:29.837Z,13.00
2023-05-19T17:57:58.315Z,13.00
2023-05-19T18:00:26.517Z,13.00
2023-05-19T18:02:56.894Z,12.98
2023-05-19T18:05:25.842Z,12.90
2023-05-19T18:07:56.430Z,12.94
2023-05-19T18:10:26.319Z,12.96
2023-05-19T18:12:53.912Z,12.98
2023-05-19T18:15:21.687Z,12.98
2023-05-19T18:17:49.349Z,12.96
2023-05-19T18:20:17.054Z,12.90
2023-05-19T18:22:44.847Z,12.90
2023-05-19T18:25:12.634Z,12.90
2023-05-19T18:27:42.553Z,12.90
2023-05-19T18:30:10.946Z,12.80
2023-05-19T18:32:38.957Z,12.80
2023-05-19T18:35:07.561Z,12.80
2023-05-19T18:37:35.762Z,12.80
2023-05-19T18:40:03.818Z,12.80
2023-05-19T18:42:31.569Z,12.80
2023-05-19T18:44:59.246Z,12.80
2023-05-19T18:47:26.904Z,12.80
2023-05-19T18:49:54.822Z,12.80
2023-05-19T18:52:22.592Z,12.80
2023-05-19T18:54:50.838Z,12.74
2023-05-19T18:57:18.589Z,12.72
2023-05-19T18:59:46.514Z,12.78
2023-05-19T19:02:14.167Z,12.76
2023-05-19T19:04:42.259Z,12.70
2023-05-19T19:07:09.994Z,12.70
2023-05-19T19:09:37.772Z,12.70
2023-05-19T19:12:05.860Z,12.70
2023-05-19T19:14:33.523Z,12.70
2023-05-19T19:17:01.285Z,12.70
2023-05-19T19:19:30.560Z,12.70
2023-05-19T19:21:58.514Z,12.70
2023-05-19T19:24:26.751Z,12.70
2023-05-19T19:26:54.612Z,12.70
2023-05-19T19:29:22.387Z,12.70
2023-05-19T19:31:50.530Z,12.70
2023-05-19T19:34:19.931Z,12.70
2023-05-19T19:36:47.926Z,12.70
2023-05-19T19:39:15.692Z,12.70
2023-05-19T19:41:43.770Z,12.68
2023-05-19T19:44:11.847Z,12.68
2023-05-19T19:46:39.815Z,12.70
2023-05-19T19:49:07.701Z,12.70
2023-05-19T19:51:35.530Z,12.70
2023-05-19T19:54:03.200Z,12.70
2023-05-19T19:56:30.913Z,12.70
2023-05-19T19:58:59.394Z,12.70
2023-05-19T20:01:27.893Z,12.70
2023-05-19T20:03:57.783Z,12.70
2023-05-19T20:06:25.985Z,12.70
2023-05-19T20:08:53.762Z,12.60
2023-05-19T20:11:23.751Z,12.60
2023-05-19T20:13:52.331Z,12.60
2023-05-19T20:16:20.122Z,12.60
2023-05-19T20:18:47.893Z,12.60
2023-05-19T20:21:15.707Z,12.60
2023-05-19T20:23:43.431Z,12.60
2023-05-19T20:26:13.164Z,12.60
2023-05-19T20:28:41.661Z,12.60
2023-05-19T20:31:09.488Z,12.60
2023-05-19T20:33:37.217Z,12.60
2023-05-19T20:36:08.117Z,12.60
2023-05-19T20:38:35.883Z,12.56
2023-05-19T20:41:04.000Z,12.52
2023-05-19T20:43:33.028Z,12.50
2023-05-19T20:46:01.756Z,12.50
2023-05-19T20:48:29.438Z,12.50
2023-05-19T20:50:57.252Z,12.50
2023-05-19T20:53:24.970Z,12.50
2023-05-19T20:55:52.752Z,12.50
2023-05-19T20:58:20.429Z,12.50
2023-05-19T21:00:53.539Z,12.50
2023-05-19T21:03:23.390Z,12.50
2023-05-19T21:05:51.419Z,12.50
2023-05-19T21:08:19.112Z,12.50
2023-05-19T21:10:47.197Z,12.48
2023-05-19T21:13:14.899Z,12.50
2023-05-19T21:15:42.616Z,12.48
2023-05-19T21:18:12.046Z,12.40
2023-05-19T21:20:40.043Z,12.40
2023-05-19T21:23:07.842Z,12.40
2023-05-19T21:25:35.863Z,12.40
2023-05-19T21:28:03.663Z,12.40
2023-05-19T21:30:31.502Z,12.40
2023-05-19T21:32:59.457Z,12.40
2023-05-19T21:35:27.344Z,12.40
2023-05-19T21:37:55.674Z,12.40
2023-05-19T21:40:23.702Z,12.40
2023-05-19T21:42:51.324Z,12.40
2023-05-19T21:45:19.010Z,12.40
2023-05-19T21:47:46.975Z,12.40
2023-05-19T21:50:17.485Z,12.40
2023-05-19T21:52:45.148Z,12.40
2023-05-19T21:55:12.838Z,12.42
2023-05-19T21:57:40.523Z,12.42
2023-05-19T22:00:12.876Z,12.40
2023-05-19T22:02:40.961Z,12.40
2023-05-19T22:05:09.342Z,12.40
2023-05-19T22:07:37.902Z,12.40
2023-05-19T22:10:06.088Z,12.40
2023-05-19T22:12:34.315Z,12.40
2023-05-19T22:15:02.932Z,12.40
2023-05-19T22:17:30.763Z,12.40
2023-05-19T22:19:58.504Z,12.40
2023-05-19T22:22:26.236Z,12.40
2023-05-19T22:24:53.869Z,12.40
2023-05-19T22:27:21.526Z,12.40
2023-05-19T22:29:49.194Z,12.40
2023-05-19T22:32:18.407Z,12.40
2023-05-19T22:34:46.403Z,12.40
2023-05-19T22:37:14.329Z,12.40
2023-05-19T22:39:42.150Z,12.40
2023-05-19T22:42:09.882Z,12.40
2023-05-19T22:44:37.536Z,12.40
2023-05-19T22:47:05.245Z,12.40
2023-05-19T22:49:32.988Z,12.40
2023-05-19T22:52:00.775Z,12.40
2023-05-19T22:54:28.446Z,12.40
2023-05-19T22:56:56.178Z,12.40
2023-05-19T22:59:23.818Z,12.40
2023-05-19T23:01:51.770Z,12.40
2023-05-19T23:04:19.503Z,12.40
2023-05-19T23:06:49.441Z,12.40
2023-05-19T23:09:18.042Z,12.40
2023-05-19T23:11:46.186Z,12.40
2023-05-19T23:14:13.963Z,12.40
2023-05-19T23:16:42.008Z,12.40
2023-05-19T23:19:09.741Z,12.40
2023-05-19T23:21:37.400Z,12.40
2023-05-19T23:24:06.528Z,12.40
2023-05-19T23:26:34.216Z,12.40
2023-05-19T23:29:01.998Z,12.40
2023-05-19T23:31:29.731Z,12.40
2023-05-19T23:33:57.617Z,12.30
2023-05-19T23:36:25.277Z,12.30
2023-05-19T23:38:53.243Z,12.30
2023-05-19T23:41:21.453Z,12.30
2023-05-19T23:43:49.154Z,12.30
2023-05-19T23:46:17.363Z,12.30
2023-05-19T23:48:45.570Z,12.30
2023-05-19T23:51:13.396Z,12.30
2023-05-19T23:53:41.118Z,12.30
2023-05-19T23:56:08.834Z,12.30
2023-05-19T23:58:36.460Z,12.24
